createdAt,value
2023-02-25T00:01:07.051Z,980.4
2023-02-25T00:02:23.359Z,980.4
2023-02-25T00:03:39.652Z,980.4
2023-02-25T00:04:55.940Z,980.4
2023-02-25T00:06:12.233Z,980.4
2023-02-25T00:07:28.544Z,980.4
2023-02-25T00:08:44.830Z,980.4
2023-02-25T00:10:01.134Z,980.4
2023-02-25T00:11:16.425Z,980.4
2023-02-25T00:12:32.733Z,980.4
2023-02-25T00:15:05.320Z,980.4
2023-02-25T00:16:21.616Z,980.3
2023-02-25T00:17:37.901Z,980.3
2023-02-25T00:18:54.206Z,980.4
2023-02-25T00:20:10.500Z,980.4
2023-02-25T00:21:26.785Z,980.3
2023-02-25T00:22:43.085Z,980.3
2023-02-25T00:23:59.379Z,980.3
2023-02-25T00:25:15.668Z,980.3
2023-02-25T00:26:31.971Z,980.3
2023-02-25T00:27:47.285Z,980.3
2023-02-25T00:29:03.568Z,980.3
2023-02-25T00:30:19.866Z,980.3
2023-02-25T00:31:36.175Z,980.3
2023-02-25T00:32:52.459Z,980.4
2023-02-25T00:34:08.760Z,980.4
2023-02-25T00:35:25.045Z,980.3
2023-02-25T00:36:41.352Z,980.4
2023-02-25T00:37:57.647Z,980.4
2023-02-25T00:39:13.945Z,980.3
2023-02-25T00:40:30.223Z,980.4
2023-02-25T00:41:46.519Z,980.4
2023-02-25T00:43:02.817Z,980.3
2023-02-25T00:44:18.129Z,980.5
2023-02-25T00:45:34.421Z,980.4
2023-02-25T00:46:50.717Z,980.4
2023-02-25T00:48:07.013Z,980.4
2023-02-25T00:49:23.306Z,980.3
2023-02-25T00:50:39.597Z,980.4
2023-02-25T00:53:12.200Z,980.4
2023-02-25T00:54:28.486Z,980.4
2023-02-25T00:55:44.786Z,980.4
2023-02-25T00:57:01.083Z,980.4
2023-02-25T00:58:17.382Z,980.4
2023-02-25T00:59:33.659Z,980.4
2023-02-25T01:00:48.990Z,980.4
2023-02-25T01:02:05.283Z,980.4
2023-02-25T01:03:21.576Z,980.3
2023-02-25T01:04:37.855Z,980.4
2023-02-25T01:05:54.160Z,980.4
2023-02-25T01:07:10.442Z,980.3
2023-02-25T01:08:25.777Z,980.4
2023-02-25T01:09:42.067Z,980.4
2023-02-25T01:10:58.357Z,980.3
2023-02-25T01:12:14.645Z,980.3
2023-02-25T01:13:30.946Z,980.3
2023-02-25T01:14:47.247Z,980.3
2023-02-25T01:16:03.547Z,980.3
2023-02-25T01:17:19.828Z,980.3
2023-02-25T01:18:36.133Z,980.3
2023-02-25T01:19:52.416Z,980.3
2023-02-25T01:21:08.726Z,980.3
2023-02-25T01:22:25.012Z,980.3
2023-02-25T01:23:41.305Z,980.3
2023-02-25T01:24:56.614Z,980.3
2023-02-25T01:26:12.919Z,980.2
2023-02-25T01:27:29.209Z,980.2
2023-02-25T01:28:45.491Z,980.2
2023-02-25T01:30:01.794Z,980.3
2023-02-25T01:31:18.088Z,980.3
2023-02-25T01:32:34.394Z,980.2
2023-02-25T01:33:50.684Z,980.2
2023-02-25T01:35:06.976Z,980.3
2023-02-25T01:36:23.273Z,980.3
2023-02-25T01:38:55.859Z,980.1
2023-02-25T01:40:12.152Z,980.3
2023-02-25T01:41:28.569Z,980.2
2023-02-25T01:42:44.865Z,980.2
2023-02-25T01:44:01.158Z,980.2
2023-02-25T01:45:17.452Z,980.2
2023-02-25T01:46:33.751Z,980.1
2023-02-25T01:47:50.045Z,980.2
2023-02-25T01:49:06.332Z,980.2
2023-02-25T01:50:22.638Z,980.2
2023-02-25T01:51:38.919Z,980.2
2023-02-25T01:52:55.229Z,980.2
2023-02-25T01:54:11.527Z,980.1
2023-02-25T01:55:27.821Z,980.2
2023-02-25T01:56:44.114Z,980.2
2023-02-25T01:57:59.424Z,980.1
2023-02-25T01:59:15.722Z,980.2
2023-02-25T02:00:32.008Z,980.1
2023-02-25T02:01:48.296Z,980.1
2023-02-25T02:03:04.598Z,980.2
2023-02-25T02:04:20.883Z,980.2
2023-02-25T02:05:37.181Z,980.1
2023-02-25T02:06:53.487Z,980.2
2023-02-25T02:08:09.768Z,980.2
2023-02-25T02:09:26.062Z,980.2
2023-02-25T02:10:42.361Z,980.2
2023-02-25T02:11:58.651Z,980.2
2023-02-25T02:13:14.952Z,980.2
2023-02-25T02:14:30.265Z,980.3
2023-02-25T02:17:02.853Z,980.2
2023-02-25T02:18:19.142Z,980.1
2023-02-25T02:19:35.435Z,980.1
2023-02-25T02:20:51.741Z,980.2
2023-02-25T02:22:08.024Z,980.1
2023-02-25T02:24:40.621Z,980.1
2023-02-25T02:27:13.216Z,980
2023-02-25T02:28:28.532Z,980.1
2023-02-25T02:29:43.832Z,980.1
2023-02-25T02:31:00.130Z,980.2
2023-02-25T02:32:16.427Z,980.1
2023-02-25T02:33:32.731Z,980.2
2023-02-25T02:34:49.024Z,980.1
2023-02-25T02:36:05.313Z,980.2
2023-02-25T02:37:21.599Z,980.2
2023-02-25T02:38:37.906Z,980.1
2023-02-25T02:39:54.194Z,980.2
2023-02-25T02:41:10.481Z,980.2
2023-02-25T02:42:25.814Z,980.2
2023-02-25T02:43:41.118Z,980.1
2023-02-25T02:44:57.411Z,980.1
2023-02-25T02:46:13.708Z,980.1
2023-02-25T02:47:30.003Z,980.3
2023-02-25T02:48:46.000Z,980.2
2023-02-25T02:50:02.594Z,980.1
2023-02-25T02:51:18.888Z,980.1
2023-02-25T02:52:35.181Z,980.1
2023-02-25T02:53:51.479Z,980.1
2023-02-25T02:55:07.760Z,980.1
2023-02-25T02:56:24.060Z,980.1
2023-02-25T02:57:40.359Z,980.1
2023-02-25T02:58:56.656Z,980.2
2023-02-25T03:00:11.974Z,980.2
2023-02-25T03:02:44.561Z,980.2
2023-02-25T03:04:00.858Z,980.1
2023-02-25T03:05:17.136Z,980.2
2023-02-25T03:06:33.436Z,980.4
2023-02-25T03:07:49.739Z,980.5
2023-02-25T03:09:06.020Z,980.6
2023-02-25T03:10:22.322Z,980.5
2023-02-25T03:11:38.610Z,980.6
2023-02-25T03:12:54.918Z,980.5
2023-02-25T03:14:11.210Z,980.6
2023-02-25T03:15:27.497Z,980.7
2023-02-25T03:16:42.816Z,980.7
2023-02-25T03:17:59.111Z,980.6
2023-02-25T03:19:15.397Z,980.7
2023-02-25T03:20:31.709Z,980.8
2023-02-25T03:23:04.277Z,980.7
2023-02-25T03:24:20.587Z,980.9
2023-02-25T03:25:36.868Z,980.7
2023-02-25T03:26:53.163Z,980.7
2023-02-25T03:28:09.464Z,980.7
2023-02-25T03:29:25.769Z,980.8
2023-02-25T03:30:42.045Z,980.8
2023-02-25T03:33:14.649Z,980.9
2023-02-25T03:34:29.953Z,981.1
2023-02-25T03:35:46.253Z,981
2023-02-25T03:37:02.555Z,981
2023-02-25T03:38:18.837Z,981.1
2023-02-25T03:40:51.437Z,981.1
2023-02-25T03:42:07.728Z,981
2023-02-25T03:43:23.044Z,981.1
2023-02-25T03:44:38.360Z,981.1
2023-02-25T03:45:54.655Z,981.1
2023-02-25T03:47:10.941Z,981.1
2023-02-25T03:48:27.241Z,981.2
2023-02-25T03:49:43.536Z,981.2
2023-02-25T03:50:59.830Z,981.2
2023-02-25T03:52:16.124Z,981.2
2023-02-25T03:53:32.422Z,981.2
2023-02-25T03:54:48.719Z,981.2
2023-02-25T03:57:21.305Z,981.3
2023-02-25T03:58:37.594Z,981.3
2023-02-25T03:59:53.881Z,981.4
2023-02-25T04:01:10.181Z,981.3
2023-02-25T04:02:26.476Z,981.5
2023-02-25T04:03:41.789Z,981.4
2023-02-25T04:04:58.089Z,981.4
2023-02-25T04:06:14.368Z,981.5
2023-02-25T04:07:30.684Z,981.5
2023-02-25T04:08:46.978Z,981.4
2023-02-25T04:11:19.561Z,981.4
2023-02-25T04:12:35.851Z,981.5
2023-02-25T04:13:52.147Z,981.5
2023-02-25T04:15:08.451Z,981.5
2023-02-25T04:16:24.726Z,981.5
2023-02-25T04:18:57.332Z,981.6
2023-02-25T04:20:13.614Z,981.6
2023-02-25T04:21:28.927Z,981.6
2023-02-25T04:24:01.519Z,981.6
2023-02-25T04:25:17.820Z,981.6
2023-02-25T04:26:33.128Z,981.6
2023-02-25T04:27:49.417Z,981.6
2023-02-25T04:29:05.730Z,981.8
2023-02-25T04:30:22.014Z,981.9
2023-02-25T04:31:38.314Z,981.8
2023-02-25T04:34:10.911Z,981.7
2023-02-25T04:35:27.203Z,981.7
2023-02-25T04:36:43.498Z,981.7
2023-02-25T04:37:59.792Z,981.7
2023-02-25T04:39:16.085Z,981.8
2023-02-25T04:40:32.380Z,981.7
2023-02-25T04:41:48.666Z,981.8
2023-02-25T04:43:03.990Z,981.7
2023-02-25T04:44:20.285Z,981.7
2023-02-25T04:45:36.562Z,981.7
2023-02-25T04:46:52.867Z,981.8
2023-02-25T04:50:41.752Z,981.8
2023-02-25T04:51:58.034Z,981.8
2023-02-25T04:53:14.335Z,981.8
2023-02-25T04:54:30.641Z,981.8
2023-02-25T04:57:03.224Z,981.8
2023-02-25T04:58:19.528Z,981.8
2023-02-25T05:02:07.421Z,981.8
2023-02-25T05:03:23.707Z,981.7
2023-02-25T05:04:40.005Z,981.8
2023-02-25T05:05:56.296Z,981.8
2023-02-25T05:07:12.596Z,981.8
2023-02-25T05:08:28.901Z,981.8
2023-02-25T05:09:45.182Z,981.8
2023-02-25T05:13:34.065Z,981.8
2023-02-25T05:14:50.376Z,981.9
2023-02-25T05:16:06.659Z,981.9
2023-02-25T05:17:22.967Z,981.9
2023-02-25T05:19:54.571Z,981.9
2023-02-25T05:21:10.852Z,981.9
2023-02-25T05:22:27.161Z,981.9
2023-02-25T05:24:58.762Z,982
2023-02-25T05:26:14.082Z,982
2023-02-25T05:27:30.376Z,982
2023-02-25T05:28:46.661Z,982
2023-02-25T05:30:02.968Z,982
2023-02-25T05:31:19.260Z,982.1
2023-02-25T05:32:35.558Z,982
2023-02-25T05:35:08.147Z,982
2023-02-25T05:36:24.429Z,982.1
2023-02-25T05:37:40.685Z,982.1
2023-02-25T05:38:56.977Z,982.1
2023-02-25T05:40:13.230Z,982.1
2023-02-25T05:41:29.477Z,982.2
2023-02-25T05:42:44.775Z,982.1
2023-02-25T05:44:01.028Z,982.1
2023-02-25T05:45:17.272Z,982
2023-02-25T05:46:33.514Z,982.1
2023-02-25T05:47:49.765Z,982.1
2023-02-25T05:49:06.003Z,982.1
2023-02-25T05:50:22.250Z,982.2
2023-02-25T05:51:38.478Z,982.1
2023-02-25T05:52:53.742Z,982.1
2023-02-25T05:54:09.995Z,982.1
2023-02-25T05:55:25.254Z,982.2
2023-02-25T05:56:41.489Z,982.2
2023-02-25T05:57:57.724Z,982.2
2023-02-25T05:59:13.958Z,982.2
2023-02-25T06:00:30.207Z,982.3
2023-02-25T06:01:46.445Z,982.3
2023-02-25T06:04:18.921Z,982.3
2023-02-25T06:05:35.180Z,982.3
2023-02-25T06:06:51.418Z,982.4
2023-02-25T06:09:23.903Z,982.4
2023-02-25T06:10:40.288Z,982.4
2023-02-25T06:11:55.531Z,982.4
2023-02-25T06:13:11.774Z,982.5
2023-02-25T06:14:28.025Z,982.4
2023-02-25T06:15:44.261Z,982.4
2023-02-25T06:17:00.503Z,982.5
2023-02-25T06:18:16.739Z,982.5
2023-02-25T06:19:32.988Z,982.5
2023-02-25T06:20:49.211Z,982.6
2023-02-25T06:22:05.470Z,982.5
2023-02-25T06:23:21.710Z,982.5
2023-02-25T06:24:36.954Z,982.5
2023-02-25T06:25:53.198Z,982.5
2023-02-25T06:28:24.707Z,982.7
2023-02-25T06:29:40.951Z,982.6
2023-02-25T06:30:57.177Z,982.6
2023-02-25T06:32:13.420Z,982.7
2023-02-25T06:33:29.655Z,982.7
2023-02-25T06:36:02.156Z,982.8
2023-02-25T06:37:18.390Z,982.8
2023-02-25T06:38:34.626Z,982.8
2023-02-25T06:39:50.866Z,982.8
2023-02-25T06:41:07.106Z,982.8
2023-02-25T06:42:22.363Z,982.8
2023-02-25T06:43:37.623Z,982.8
2023-02-25T06:44:53.877Z,982.9
2023-02-25T06:46:10.113Z,982.8
2023-02-25T06:47:26.352Z,982.9
2023-02-25T06:48:42.602Z,982.9
2023-02-25T06:49:58.840Z,982.9
2023-02-25T06:51:15.080Z,982.9
2023-02-25T06:52:31.321Z,983
2023-02-25T06:53:47.565Z,983
2023-02-25T06:55:03.795Z,983
2023-02-25T06:56:19.050Z,983
2023-02-25T06:57:35.293Z,983.1
2023-02-25T06:58:50.565Z,983.1
2023-02-25T07:00:06.801Z,983.1
2023-02-25T07:01:23.042Z,983.1
2023-02-25T07:02:39.285Z,983.1
2023-02-25T07:03:55.515Z,983.1
2023-02-25T07:06:28.009Z,983.1
2023-02-25T07:07:44.248Z,983.1
2023-02-25T07:09:00.476Z,983.2
2023-02-25T07:10:16.718Z,983.2
2023-02-25T07:11:32.962Z,983.2
2023-02-25T07:12:49.209Z,983.1
2023-02-25T07:14:05.439Z,983.3
2023-02-25T07:15:20.696Z,983.2
2023-02-25T07:16:36.933Z,983.2
2023-02-25T07:17:53.188Z,983.2
2023-02-25T07:19:09.416Z,983.3
2023-02-25T07:20:25.664Z,983.3
2023-02-25T07:21:41.911Z,983.3
2023-02-25T07:22:58.147Z,983.3
2023-02-25T07:24:13.400Z,983.3
2023-02-25T07:25:28.668Z,983.4
2023-02-25T07:26:44.911Z,983.3
2023-02-25T07:28:01.147Z,983.4
2023-02-25T07:29:17.388Z,983.3
2023-02-25T07:30:33.621Z,983.5
2023-02-25T07:31:49.878Z,983.3
2023-02-25T07:33:06.113Z,983.3
2023-02-25T07:34:22.340Z,983.5
2023-02-25T07:35:38.588Z,983.5
2023-02-25T07:36:54.832Z,983.4
2023-02-25T07:38:11.068Z,983.4
2023-02-25T07:39:27.314Z,983.5
2023-02-25T07:40:43.543Z,983.4
2023-02-25T07:41:58.818Z,983.5
2023-02-25T07:43:15.044Z,983.5
2023-02-25T07:44:31.285Z,983.5
2023-02-25T07:45:47.536Z,983.7
2023-02-25T07:47:03.780Z,983.5
2023-02-25T07:48:20.022Z,983.6
2023-02-25T07:49:36.253Z,983.6
2023-02-25T07:50:52.491Z,983.6
2023-02-25T07:52:08.732Z,983.6
2023-02-25T07:53:24.981Z,983.6
2023-02-25T07:54:41.000Z,983.6
2023-02-25T07:55:57.466Z,983.6
2023-02-25T07:57:13.698Z,983.6
2023-02-25T07:58:28.965Z,983.6
2023-02-25T07:59:45.203Z,983.7
2023-02-25T08:01:01.430Z,983.6
2023-02-25T08:02:17.686Z,983.7
2023-02-25T08:04:50.158Z,983.7
2023-02-25T08:06:06.410Z,983.7
2023-02-25T08:07:22.640Z,983.7
2023-02-25T08:08:38.884Z,983.7
2023-02-25T08:09:55.113Z,983.7
2023-02-25T08:11:11.355Z,983.8
2023-02-25T08:12:27.606Z,983.8
2023-02-25T08:13:43.845Z,983.8
2023-02-25T08:16:15.335Z,983.8
2023-02-25T08:17:31.587Z,983.8
2023-02-25T08:18:47.815Z,983.8
2023-02-25T08:20:04.064Z,983.7
2023-02-25T08:21:20.317Z,983.8
2023-02-25T08:22:36.549Z,983.8
2023-02-25T08:23:52.797Z,983.8
2023-02-25T08:25:09.024Z,983.8
2023-02-25T08:26:25.260Z,983.8
2023-02-25T08:27:41.502Z,983.8
2023-02-25T08:28:57.748Z,983.6
2023-02-25T08:30:13.998Z,983.8
2023-02-25T08:31:30.224Z,983.9
2023-02-25T08:32:46.476Z,984
2023-02-25T08:34:01.724Z,984
2023-02-25T08:35:17.972Z,984
2023-02-25T08:36:34.212Z,984.1
2023-02-25T08:37:50.453Z,984.1
2023-02-25T08:39:06.684Z,984.2
2023-02-25T08:40:22.934Z,984.2
2023-02-25T08:41:39.166Z,984.2
2023-02-25T08:42:55.423Z,984.2
2023-02-25T08:44:11.644Z,984.4
2023-02-25T08:45:27.889Z,984.4
2023-02-25T08:46:44.137Z,984.4
2023-02-25T08:48:00.379Z,984.4
2023-02-25T08:49:16.623Z,984.3
2023-02-25T08:50:31.868Z,984.2
2023-02-25T08:51:48.117Z,984.3
2023-02-25T08:53:04.359Z,984.3
2023-02-25T08:54:20.602Z,984.3
2023-02-25T08:55:36.847Z,984.3
2023-02-25T08:56:53.085Z,984.3
2023-02-25T08:58:09.317Z,984.5
2023-02-25T09:00:41.000Z,984.6
2023-02-25T09:01:58.035Z,984.5
2023-02-25T09:03:14.289Z,984.5
2023-02-25T09:04:30.518Z,984.6
2023-02-25T09:05:46.761Z,984.6
2023-02-25T09:07:02.019Z,984.5
2023-02-25T09:08:18.254Z,984.6
2023-02-25T09:09:34.498Z,984.5
2023-02-25T09:10:50.736Z,984.6
2023-02-25T09:12:06.978Z,984.7
2023-02-25T09:14:39.468Z,984.7
2023-02-25T09:15:55.699Z,984.8
2023-02-25T09:17:11.938Z,984.7
2023-02-25T09:18:28.191Z,984.8
2023-02-25T09:19:44.418Z,984.7
2023-02-25T09:21:00.675Z,984.9
2023-02-25T09:22:16.911Z,984.7
2023-02-25T09:23:32.176Z,984.7
2023-02-25T09:24:48.411Z,984.7
2023-02-25T09:27:20.893Z,984.7
2023-02-25T09:28:37.134Z,984.8
2023-02-25T09:29:53.366Z,984.7
2023-02-25T09:31:09.614Z,984.7
2023-02-25T09:32:25.854Z,984.9
2023-02-25T09:34:58.329Z,984.9
2023-02-25T09:36:13.602Z,984.9
2023-02-25T09:37:28.850Z,984.8
2023-02-25T09:38:45.101Z,984.8
2023-02-25T09:40:01.325Z,984.9
2023-02-25T09:43:49.080Z,984.8
2023-02-25T09:45:04.343Z,984.9
2023-02-25T09:46:20.592Z,985
2023-02-25T09:47:36.830Z,984.9
2023-02-25T09:48:53.056Z,984.9
2023-02-25T09:50:09.303Z,985
2023-02-25T09:52:41.794Z,985
2023-02-25T09:53:57.041Z,985
2023-02-25T09:55:13.296Z,985.1
2023-02-25T09:56:28.000Z,985
2023-02-25T09:57:44.785Z,985.1
2023-02-25T09:59:01.028Z,985.1
2023-02-25T10:00:17.261Z,985.1
2023-02-25T10:01:33.515Z,985.1
2023-02-25T10:02:49.751Z,985.1
2023-02-25T10:04:05.990Z,985.5
2023-02-25T10:05:22.237Z,985.1
2023-02-25T10:06:38.467Z,985.1
2023-02-25T10:09:09.966Z,985.1
2023-02-25T10:10:25.237Z,985.1
2023-02-25T10:11:41.462Z,985.2
2023-02-25T10:12:57.704Z,985.3
2023-02-25T10:14:13.953Z,985.2
2023-02-25T10:15:30.203Z,985.3
2023-02-25T10:16:46.433Z,985.4
2023-02-25T10:18:02.675Z,985.4
2023-02-25T10:19:18.912Z,985.4
2023-02-25T10:20:35.152Z,985.3
2023-02-25T10:21:51.398Z,985.3
2023-02-25T10:23:07.646Z,985.3
2023-02-25T10:24:22.907Z,985.3
2023-02-25T10:25:38.151Z,985.3
2023-02-25T10:26:54.404Z,985.4
2023-02-25T10:28:10.632Z,985.3
2023-02-25T10:29:26.890Z,985.4
2023-02-25T10:30:43.130Z,985.4
2023-02-25T10:31:59.371Z,985.4
2023-02-25T10:33:15.611Z,985.4
2023-02-25T10:34:31.843Z,985.5
2023-02-25T10:35:48.083Z,985.4
2023-02-25T10:37:04.320Z,985.5
2023-02-25T10:38:19.587Z,985.6
2023-02-25T10:39:34.847Z,985.5
2023-02-25T10:40:51.090Z,985.5
2023-02-25T10:42:07.317Z,985.5
2023-02-25T10:43:23.563Z,985.5
2023-02-25T10:44:39.807Z,985.6
2023-02-25T10:45:56.039Z,985.6
2023-02-25T10:47:12.295Z,985.6
2023-02-25T10:48:28.527Z,985.6
2023-02-25T10:49:44.772Z,985.6
2023-02-25T10:51:01.013Z,985.6
2023-02-25T10:52:17.251Z,985.6
2023-02-25T10:54:49.732Z,985.6
2023-02-25T10:56:04.997Z,985.5
2023-02-25T10:57:21.227Z,985.6
2023-02-25T10:58:37.471Z,985.6
2023-02-25T10:59:53.702Z,985.6
2023-02-25T11:02:26.201Z,985.6
2023-02-25T11:03:41.449Z,985.7
2023-02-25T11:04:56.719Z,985.8
2023-02-25T11:06:12.952Z,985.8
2023-02-25T11:07:29.188Z,985.8
2023-02-25T11:10:01.669Z,985.8
2023-02-25T11:11:17.916Z,985.8
2023-02-25T11:12:34.161Z,985.7
2023-02-25T11:15:06.636Z,985.8
2023-02-25T11:16:22.866Z,985.7
2023-02-25T11:17:39.119Z,985.8
2023-02-25T11:18:55.357Z,985.9
2023-02-25T11:20:10.623Z,985.9
2023-02-25T11:23:59.341Z,986
2023-02-25T11:25:14.597Z,985.9
2023-02-25T11:26:30.836Z,985.9
2023-02-25T11:27:47.071Z,986
2023-02-25T11:29:03.321Z,985.9
2023-02-25T11:30:19.553Z,985.9
2023-02-25T11:32:52.040Z,985.9
2023-02-25T11:34:08.288Z,985.9
2023-02-25T11:35:24.522Z,985.9
2023-02-25T11:36:40.772Z,985.9
2023-02-25T11:37:56.998Z,985.9
2023-02-25T11:39:13.240Z,986
2023-02-25T11:40:29.478Z,985.9
2023-02-25T11:41:45.731Z,985.9
2023-02-25T11:43:00.983Z,985.9
2023-02-25T11:45:33.463Z,986
2023-02-25T11:46:49.697Z,986
2023-02-25T11:48:05.946Z,986.1
2023-02-25T11:49:22.184Z,985.9
2023-02-25T11:50:38.429Z,986
2023-02-25T11:51:54.671Z,986
2023-02-25T11:53:10.914Z,986
2023-02-25T11:54:27.147Z,986
2023-02-25T11:55:43.394Z,986.1
2023-02-25T11:56:59.627Z,986
2023-02-25T11:58:15.875Z,986
2023-02-25T11:59:31.133Z,986
2023-02-25T12:00:47.362Z,986.1
2023-02-25T12:02:02.624Z,986
2023-02-25T12:03:18.872Z,986
2023-02-25T12:04:35.115Z,986
2023-02-25T12:05:51.339Z,986
2023-02-25T12:07:07.599Z,986.1
2023-02-25T12:08:23.840Z,986.2
2023-02-25T12:09:40.074Z,986.1
2023-02-25T12:10:56.317Z,986.1
2023-02-25T12:12:12.554Z,986.2
2023-02-25T12:13:27.806Z,986.3
2023-02-25T12:14:43.074Z,986.3
2023-02-25T12:15:59.319Z,986.2
2023-02-25T12:18:31.798Z,986.2
2023-02-25T12:19:48.032Z,986.2
2023-02-25T12:21:04.274Z,986.2
2023-02-25T12:22:20.522Z,986.3
2023-02-25T12:23:36.769Z,986.3
2023-02-25T12:26:09.250Z,986.3
2023-02-25T12:27:25.489Z,986.3
2023-02-25T12:28:41.710Z,986.4
2023-02-25T12:29:56.977Z,986.3
2023-02-25T12:31:12.233Z,986.3
2023-02-25T12:32:28.478Z,986.4
2023-02-25T12:33:44.718Z,986.3
2023-02-25T12:35:00.968Z,986.4
2023-02-25T12:36:17.191Z,986.3
2023-02-25T12:37:33.435Z,986.5
2023-02-25T12:38:49.683Z,986.4
2023-02-25T12:40:05.919Z,986.5
2023-02-25T12:41:22.161Z,986.5
2023-02-25T12:42:38.413Z,986.5
2023-02-25T12:43:53.671Z,986.4
2023-02-25T12:45:08.919Z,986.4
2023-02-25T12:46:25.161Z,986.5
2023-02-25T12:48:57.638Z,986.5
2023-02-25T12:50:13.886Z,986.5
2023-02-25T12:51:30.121Z,986.5
2023-02-25T12:52:46.368Z,986.5
2023-02-25T12:54:02.603Z,986.5
2023-02-25T12:56:35.089Z,986.5
2023-02-25T12:57:51.332Z,986.5
2023-02-25T12:59:07.559Z,986.6
2023-02-25T13:00:22.827Z,986.5
2023-02-25T13:01:38.081Z,986.7
2023-02-25T13:04:10.562Z,986.7
2023-02-25T13:05:26.813Z,986.6
2023-02-25T13:06:43.058Z,986.6
2023-02-25T13:07:59.297Z,986.7
2023-02-25T13:09:15.541Z,986.6
2023-02-25T13:10:31.772Z,986.8
2023-02-25T13:11:48.010Z,986.8
2023-02-25T13:13:04.257Z,986.9
2023-02-25T13:14:20.491Z,986.8
2023-02-25T13:15:36.730Z,986.9
2023-02-25T13:16:52.967Z,987.1
2023-02-25T13:19:24.479Z,987
2023-02-25T13:20:39.729Z,987
2023-02-25T13:21:54.988Z,986.9
2023-02-25T13:23:11.240Z,987.1
2023-02-25T13:24:27.473Z,986.9
2023-02-25T13:25:43.715Z,986.9
2023-02-25T13:26:59.946Z,986.8
2023-02-25T13:28:16.186Z,986.9
2023-02-25T13:29:32.435Z,986.9
2023-02-25T13:30:48.680Z,986.9
2023-02-25T13:32:04.927Z,986.8
2023-02-25T13:33:21.158Z,987
2023-02-25T13:34:36.419Z,986.9
2023-02-25T13:35:51.677Z,987
2023-02-25T13:37:07.927Z,987
2023-02-25T13:38:24.154Z,986.9
2023-02-25T13:39:40.392Z,987
2023-02-25T13:40:56.645Z,987
2023-02-25T13:42:12.885Z,987.1
2023-02-25T13:43:29.123Z,987
2023-02-25T13:44:45.356Z,987
2023-02-25T13:46:01.609Z,987
2023-02-25T13:47:17.852Z,987
2023-02-25T13:49:49.354Z,987
2023-02-25T13:51:04.611Z,987
2023-02-25T13:52:20.845Z,987.1
2023-02-25T13:53:37.093Z,987.1
2023-02-25T13:54:53.335Z,987.1
2023-02-25T13:57:25.807Z,987.1
2023-02-25T13:58:41.067Z,987
2023-02-25T13:59:56.342Z,987.1
2023-02-25T14:01:12.563Z,987.2
2023-02-25T14:02:28.816Z,987.1
2023-02-25T14:05:01.298Z,987.1
2023-02-25T14:06:17.542Z,987.2
2023-02-25T14:07:33.783Z,987.1
2023-02-25T14:08:50.023Z,987.1
2023-02-25T14:10:06.264Z,987.2
2023-02-25T14:11:22.486Z,987.2
2023-02-25T14:12:38.739Z,987.2
2023-02-25T14:13:54.986Z,987.2
2023-02-25T14:15:11.218Z,987.2
2023-02-25T14:16:26.473Z,987.3
2023-02-25T14:17:42.705Z,987.2
2023-02-25T14:18:58.954Z,987.4
2023-02-25T14:20:15.195Z,987.4
2023-02-25T14:21:31.427Z,987.5
2023-02-25T14:22:47.681Z,987.3
2023-02-25T14:24:03.926Z,987.4
2023-02-25T14:25:20.163Z,987.4
2023-02-25T14:26:36.398Z,987.4
2023-02-25T14:27:51.665Z,987.4
2023-02-25T14:29:06.927Z,987.4
2023-02-25T14:30:23.163Z,987.5
2023-02-25T14:31:39.402Z,987.4
2023-02-25T14:32:55.631Z,987.5
2023-02-25T14:35:28.130Z,987.6
2023-02-25T14:36:44.363Z,987.5
2023-02-25T14:38:00.596Z,987.6
2023-02-25T14:40:33.089Z,987.6
2023-02-25T14:41:49.325Z,987.6
2023-02-25T14:43:05.574Z,987.8
2023-02-25T14:44:20.830Z,987.8
2023-02-25T14:45:36.081Z,988.2
2023-02-25T14:46:52.325Z,988.2
2023-02-25T14:48:08.566Z,988.2
2023-02-25T14:49:24.805Z,988.1
2023-02-25T14:50:41.037Z,988.5
2023-02-25T14:51:57.291Z,988.2
2023-02-25T14:53:13.534Z,988.1
2023-02-25T14:54:29.773Z,988.1
2023-02-25T14:55:46.007Z,988.1
2023-02-25T14:57:02.248Z,988.2
2023-02-25T14:58:17.504Z,988.1
2023-02-25T14:59:32.777Z,988.2
2023-02-25T15:00:49.004Z,988.3
2023-02-25T15:02:05.262Z,988.2
2023-02-25T15:03:21.487Z,988.3
2023-02-25T15:04:37.739Z,988.4
2023-02-25T15:07:10.220Z,988.3
2023-02-25T15:08:26.454Z,988.3
2023-02-25T15:09:42.705Z,988.3
2023-02-25T15:10:58.931Z,988.3
2023-02-25T15:12:15.187Z,988.3
2023-02-25T15:13:31.425Z,988.4
2023-02-25T15:14:47.657Z,988.3
2023-02-25T15:16:02.925Z,988.4
2023-02-25T15:17:19.161Z,988.5
2023-02-25T15:18:35.403Z,988.4
2023-02-25T15:19:51.647Z,988.5
2023-02-25T15:21:07.882Z,988.5
2023-02-25T15:22:24.119Z,988.5
2023-02-25T15:23:40.359Z,988.6
2023-02-25T15:24:56.599Z,988.6
2023-02-25T15:26:11.876Z,988.5
2023-02-25T15:28:43.364Z,988.6
2023-02-25T15:29:59.616Z,988.6
2023-02-25T15:31:15.839Z,988.6
2023-02-25T15:32:32.086Z,988.6
2023-02-25T15:33:48.340Z,988.7
2023-02-25T15:36:20.802Z,988.7
2023-02-25T15:37:37.056Z,988.8
2023-02-25T15:38:53.288Z,988.7
2023-02-25T15:40:09.530Z,988.6
2023-02-25T15:41:25.767Z,988.7
2023-02-25T15:42:42.021Z,988.7
2023-02-25T15:43:57.279Z,988.7
2023-02-25T15:45:13.515Z,988.8
2023-02-25T15:46:29.763Z,988.8
2023-02-25T15:47:45.990Z,988.8
2023-02-25T15:49:02.237Z,989
2023-02-25T15:51:34.723Z,988.9
2023-02-25T15:52:49.983Z,988.9
2023-02-25T15:54:05.243Z,988.9
2023-02-25T15:55:21.487Z,988.9
2023-02-25T15:56:37.715Z,988.9
2023-02-25T15:57:53.969Z,988.9
2023-02-25T15:59:10.194Z,989
2023-02-25T16:00:26.440Z,989
2023-02-25T16:01:42.691Z,989
2023-02-25T16:02:58.926Z,989
2023-02-25T16:04:15.163Z,989
2023-02-25T16:05:31.398Z,989
2023-02-25T16:06:46.670Z,989.1
2023-02-25T16:08:01.921Z,989.1
2023-02-25T16:09:18.157Z,989.2
2023-02-25T16:10:34.415Z,989.2
2023-02-25T16:11:50.651Z,989.1
2023-02-25T16:14:23.136Z,989.3
2023-02-25T16:15:39.367Z,989.2
2023-02-25T16:16:55.606Z,989.2
2023-02-25T16:18:11.845Z,989.3
2023-02-25T16:19:28.092Z,989.3
2023-02-25T16:23:16.820Z,989.4
2023-02-25T16:24:32.085Z,989.4
2023-02-25T16:25:47.339Z,989.4
2023-02-25T16:27:03.584Z,989.5
2023-02-25T16:28:19.809Z,989.6
2023-02-25T16:29:36.048Z,989.5
2023-02-25T16:30:52.298Z,989.5
2023-02-25T16:32:08.536Z,989.5
2023-02-25T16:33:24.770Z,989.5
2023-02-25T16:34:41.017Z,989.6
2023-02-25T16:35:57.256Z,989.6
2023-02-25T16:37:13.510Z,989.6
2023-02-25T16:38:28.769Z,989.6
2023-02-25T16:39:44.016Z,989.6
2023-02-25T16:41:00.263Z,989.7
2023-02-25T16:42:16.510Z,989.6
2023-02-25T16:43:32.741Z,989.7
2023-02-25T16:44:48.987Z,989.7
2023-02-25T16:46:05.230Z,989.7
2023-02-25T16:47:21.459Z,989.8
2023-02-25T16:48:37.708Z,989.9
2023-02-25T16:49:53.959Z,989.9
2023-02-25T16:52:26.435Z,990.1
2023-02-25T16:53:42.682Z,990.1
2023-02-25T16:54:58.919Z,990.2
2023-02-25T16:56:14.218Z,990.2
2023-02-25T16:57:30.515Z,990.2
2023-02-25T16:58:46.752Z,990.1
2023-02-25T17:00:03.001Z,990.3
2023-02-25T17:01:19.246Z,990.2
2023-02-25T17:02:35.498Z,990.3
2023-02-25T17:03:51.728Z,990.4
2023-02-25T17:05:07.975Z,990.2
2023-02-25T17:07:40.453Z,990.3
2023-02-25T17:08:56.758Z,990.3
2023-02-25T17:10:13.048Z,990.4
2023-02-25T17:11:29.338Z,990.3
2023-02-25T17:12:44.661Z,990.5
2023-02-25T17:14:00.946Z,990.4
2023-02-25T17:15:17.249Z,990.5
2023-02-25T17:16:33.544Z,990.5
2023-02-25T17:17:49.832Z,990.5
2023-02-25T17:19:06.138Z,990.6
2023-02-25T17:20:22.424Z,990.6
2023-02-25T17:21:38.729Z,990.5
2023-02-25T17:22:55.016Z,990.9
2023-02-25T17:24:11.305Z,990.7
2023-02-25T17:25:27.609Z,990.7
2023-02-25T17:26:43.895Z,990.7
2023-02-25T17:28:00.196Z,990.8
2023-02-25T17:29:15.500Z,990.7
2023-02-25T17:30:31.810Z,990.6
2023-02-25T17:31:48.106Z,990.7
2023-02-25T17:33:04.379Z,990.8
2023-02-25T17:34:20.693Z,990.8
2023-02-25T17:35:36.980Z,990.8
2023-02-25T17:36:53.267Z,990.8
2023-02-25T17:38:09.566Z,990.8
2023-02-25T17:39:25.862Z,990.9
2023-02-25T17:40:42.169Z,990.9
2023-02-25T17:41:58.454Z,990.9
2023-02-25T17:43:14.739Z,990.8
2023-02-25T17:44:31.038Z,990.9
2023-02-25T17:45:46.364Z,990.8
2023-02-25T17:47:02.645Z,990.8
2023-02-25T17:48:18.942Z,990.7
2023-02-25T17:49:35.234Z,990.8
2023-02-25T17:50:51.543Z,990.9
2023-02-25T17:53:24.116Z,990.8